Time;durP1;ratioP1;P1;durP2;ratioP2;P2;SDS_P1;SDS_P2;PMS_P1;PMS_P2;Temp;Humidity;BMP_temperature;BMP_pressure;BME280_temperature;BME280_humidity;BME280_pressure;Samples;Min_cycle;Max_cycle;Signal;HPM_P1;HPM_P2
2021/08/26 00:07:34;;;;;;;2.75;0.28;;;15.50;99.90;;;;;;4966194;29;20106;-85
2021/08/26 00:10:06;;;;;;;1.08;0.20;;;15.50;99.90;;;;;;4950507;29;20035;-85
2021/08/26 00:12:32;;;;;;;0.65;0.20;;;15.50;99.90;;;;;;4950328;29;20118;-84
2021/08/26 00:14:59;;;;;;;1.52;0.22;;;15.50;99.90;;;;;;4966112;29;20031;-85
2021/08/26 00:17:25;;;;;;;1.60;0.30;;;15.50;99.90;;;;;;4956206;29;20036;-85
2021/08/26 00:19:53;;;;;;;1.60;0.30;;;15.50;99.90;;;;;;4946726;29;20032;-85
2021/08/26 00:22:19;;;;;;;2.00;0.22;;;15.50;99.90;;;;;;4946811;29;20042;-85
2021/08/26 00:24:45;;;;;;;2.05;0.30;;;15.50;99.90;;;;;;4930981;29;20051;-84
2021/08/26 00:27:11;;;;;;;1.92;0.30;;;15.40;99.90;;;;;;4930818;29;20095;-85
2021/08/26 00:29:37;;;;;;;0.93;0.20;;;15.50;99.90;;;;;;4946837;29;20519;-84
2021/08/26 00:32:03;;;;;;;1.25;0.20;;;15.50;99.90;;;;;;4930964;29;20032;-84
2021/08/26 00:34:28;;;;;;;1.90;0.30;;;15.50;99.90;;;;;;4946596;29;20050;-84
2021/08/26 00:36:54;;;;;;;3.72;0.30;;;15.50;99.90;;;;;;4946479;29;20052;-84
2021/08/26 00:39:19;;;;;;;1.25;0.25;;;15.50;99.90;;;;;;4946800;29;20043;-85
2021/08/26 00:41:45;;;;;;;1.00;0.30;;;15.50;99.90;;;;;;4946802;29;20028;-84
2021/08/26 00:44:10;;;;;;;4.25;0.30;;;15.50;99.90;;;;;;4946721;29;20047;-84
2021/08/26 00:46:37;;;;;;;1.83;0.60;;;15.50;99.90;;;;;;4946196;29;20042;-84
2021/08/26 00:49:07;;;;;;;2.47;0.30;;;15.50;99.90;;;;;;4946666;29;20067;-84
2021/08/26 00:51:34;;;;;;;;;;;15.50;99.90;;;;;;4947234;29;20036;-84
2021/08/26 00:53:59;;;;;;;1.98;0.22;;;15.50;99.90;;;;;;4946749;29;19958;-84
2021/08/26 00:56:25;;;;;;;3.03;0.40;;;15.50;99.90;;;;;;4946640;29;20035;-84
2021/08/26 00:58:51;;;;;;;3.70;0.38;;;15.50;99.90;;;;;;4946637;29;20527;-84
2021/08/26 01:01:29;;;;;;;1.25;0.30;;;15.50;99.90;;;;;;4946765;29;20057;-84
2021/08/26 01:04:05;;;;;;;1.65;0.30;;;15.50;99.90;;;;;;4946507;29;20055;-84
2021/08/26 01:06:42;;;;;;;1.67;0.30;;;15.50;99.90;;;;;;4946448;29;20031;-84
2021/08/26 01:09:16;;;;;;;1.90;0.20;;;15.50;99.90;;;;;;4946772;29;20079;-84
2021/08/26 01:11:43;;;;;;;0.70;0.20;;;15.40;99.90;;;;;;4946704;29;20039;-85
2021/08/26 01:14:12;;;;;;;2.10;0.30;;;15.40;99.90;;;;;;4947025;29;20172;-84
2021/08/26 01:16:38;;;;;;;1.42;0.30;;;15.40;99.90;;;;;;4949750;29;20051;-85
2021/08/26 01:19:04;;;;;;;1.73;0.22;;;15.40;99.90;;;;;;4934089;29;20048;-84
2021/08/26 01:21:30;;;;;;;2.90;0.20;;;15.30;99.90;;;;;;4950195;29;20040;-85
2021/08/26 01:23:59;;;;;;;1.65;0.30;;;15.30;99.90;;;;;;4934160;29;20051;-84
2021/08/26 01:26:36;;;;;;;3.33;0.40;;;15.30;99.90;;;;;;4933929;29;20126;-84
2021/08/26 01:29:04;;;;;;;3.90;0.50;;;15.30;99.90;;;;;;4949859;29;20081;-85
2021/08/26 01:31:31;;;;;;;4.00;0.40;;;15.30;99.90;;;;;;4949789;29;20421;-84
2021/08/26 01:33:58;;;;;;;2.83;0.30;;;15.30;99.90;;;;;;4963695;29;20035;-85
2021/08/26 01:36:34;;;;;;;2.03;0.43;;;15.30;99.90;;;;;;4968653;29;20071;-85
2021/08/26 01:39:11;;;;;;;5.57;0.60;;;15.40;99.90;;;;;;4969086;29;20035;-85
2021/08/26 01:41:39;;;;;;;3.65;0.50;;;15.40;99.90;;;;;;4968866;29;20039;-84
2021/08/26 01:44:04;;;;;;;2.90;0.50;;;15.30;99.90;;;;;;4968894;29;20127;-85
2021/08/26 01:50:18;;;;;;;5.57;0.98;;;15.40;99.90;;;;;;4929105;29;20048;-85
2021/08/26 01:52:44;;;;;;;7.88;0.73;;;15.30;99.90;;;;;;4929208;29;20024;-85
2021/08/26 01:55:10;;;;;;;5.57;0.68;;;15.30;99.90;;;;;;4913357;29;20524;-85
2021/08/26 01:57:35;;;;;;;4.18;0.70;;;15.30;99.90;;;;;;4928896;29;20038;-85
2021/08/26 02:00:08;;;;;;;6.40;0.90;;;15.30;99.90;;;;;;4929173;29;20054;-85
2021/08/26 02:02:34;;;;;;;9.35;0.98;;;15.30;99.90;;;;;;4913173;29;20036;-85
2021/08/26 02:05:00;;;;;;;6.82;0.70;;;15.30;99.90;;;;;;4913333;29;20123;-84
2021/08/26 02:07:26;;;;;;;6.55;0.80;;;15.30;99.90;;;;;;4912929;29;20048;-84
2021/08/26 02:09:51;;;;;;;7.38;0.70;;;15.20;99.90;;;;;;4929009;29;20042;-83
2021/08/26 02:12:18;;;;;;;9.82;0.90;;;15.30;99.90;;;;;;4913155;29;20036;-85
2021/08/26 02:14:44;;;;;;;8.75;1.00;;;15.20;99.90;;;;;;4913042;29;20036;-85
2021/08/26 02:17:10;;;;;;;6.05;0.80;;;15.20;99.90;;;;;;4905399;29;20029;-85
2021/08/26 02:19:36;;;;;;;4.13;0.80;;;15.20;99.90;;;;;;4909861;29;20072;-85
2021/08/26 02:22:01;;;;;;;7.25;1.27;;;15.20;99.90;;;;;;4909672;29;20503;-86
2021/08/26 02:24:27;;;;;;;4.30;0.70;;;15.20;99.90;;;;;;4909810;29;20540;-85
2021/08/26 02:26:52;;;;;;;9.55;1.25;;;15.20;99.90;;;;;;4937413;29;20056;-85
2021/08/26 02:29:18;;;;;;;7.47;1.30;;;15.20;99.90;;;;;;4948534;29;20028;-86
2021/08/26 02:31:44;;;;;;;5.63;0.95;;;15.20;99.90;;;;;;4933103;29;20040;-86
2021/08/26 02:34:09;;;;;;;12.80;1.02;;;15.20;99.90;;;;;;4948136;29;20032;-86
2021/08/26 02:36:35;;;;;;;7.85;0.90;;;15.20;99.90;;;;;;4967751;29;20094;-85
2021/08/26 02:39:01;;;;;;;11.00;1.52;;;15.20;99.90;;;;;;4967815;29;20075;-86
2021/08/26 02:41:27;;;;;;;8.45;0.80;;;15.20;99.90;;;;;;4951919;29;20054;-86
2021/08/26 02:43:53;;;;;;;8.23;1.33;;;15.20;99.90;;;;;;4951457;29;20035;-85
2021/08/26 02:46:39;;;;;;;4.20;0.70;;;15.10;99.90;;;;;;4951474;29;20095;-85
2021/08/26 02:49:04;;;;;;;8.57;1.20;;;15.10;99.90;;;;;;4928094;29;20044;-85
2021/08/26 02:51:30;;;;;;;4.93;0.77;;;15.10;99.90;;;;;;4928126;29;20040;-85
2021/08/26 02:53:55;;;;;;;7.97;0.88;;;15.10;99.90;;;;;;4927967;29;20044;-85
2021/08/26 02:56:21;;;;;;;5.32;0.80;;;15.00;99.90;;;;;;4928009;29;20040;-85
2021/08/26 02:58:50;;;;;;;7.43;0.85;;;15.00;99.90;;;;;;4927912;29;20527;-86
2021/08/26 03:01:15;;;;;;;6.53;0.95;;;15.00;99.90;;;;;;4912330;29;20044;-85
2021/08/26 03:03:41;;;;;;;8.25;1.27;;;15.00;99.90;;;;;;4912159;29;20059;-85
2021/08/26 03:06:07;;;;;;;12.15;1.42;;;15.00;99.90;;;;;;4927803;29;20112;-85
2021/08/26 03:08:33;;;;;;;9.75;1.13;;;14.90;99.90;;;;;;4927764;29;20036;-85
2021/08/26 03:10:59;;;;;;;9.98;1.20;;;14.90;99.90;;;;;;4928007;29;20124;-85
2021/08/26 03:13:25;;;;;;;7.85;0.80;;;14.90;99.90;;;;;;4912017;29;20237;-85
2021/08/26 03:15:50;;;;;;;7.50;0.90;;;14.90;99.90;;;;;;4927683;29;20497;-85
2021/08/26 03:18:16;;;;;;;12.07;1.15;;;14.90;99.90;;;;;;4895685;29;20033;-85
2021/08/26 03:20:42;;;;;;;7.55;0.90;;;14.80;99.90;;;;;;4893056;29;20115;-85
2021/08/26 03:23:08;;;;;;;4.80;0.68;;;14.80;99.90;;;;;;4908526;29;20037;-85
2021/08/26 03:25:34;;;;;;;5.28;0.80;;;14.80;99.90;;;;;;4919132;29;20031;-85
2021/08/26 03:28:00;;;;;;;7.25;0.80;;;14.80;99.90;;;;;;4947453;29;20063;-85
2021/08/26 03:30:26;;;;;;;6.88;1.05;;;14.80;99.90;;;;;;4947763;29;20032;-85
2021/08/26 03:32:52;;;;;;;7.50;1.10;;;14.80;99.90;;;;;;4953998;29;20055;-85
2021/08/26 03:35:17;;;;;;;7.40;0.90;;;14.70;99.90;;;;;;4966544;29;20074;-86
2021/08/26 03:37:43;;;;;;;5.72;0.73;;;14.70;99.90;;;;;;4966147;28;20032;-85
2021/08/26 03:40:10;;;;;;;6.65;0.85;;;14.70;99.90;;;;;;4950729;29;20031;-86
2021/08/26 03:42:36;;;;;;;9.48;1.48;;;14.70;99.90;;;;;;4966828;29;20114;-85
2021/08/26 03:45:03;;;;;;;6.65;0.80;;;14.70;99.90;;;;;;4966805;29;20035;-86
2021/08/26 03:47:28;;;;;;;10.63;1.00;;;14.70;99.90;;;;;;4966266;29;20026;-86
2021/08/26 03:49:54;;;;;;;5.20;0.90;;;14.60;99.90;;;;;;4950627;29;20039;-86
2021/08/26 03:52:20;;;;;;;6.00;0.60;;;14.70;99.90;;;;;;4964956;29;20027;-86
2021/08/26 03:54:45;;;;;;;7.38;0.90;;;14.60;99.90;;;;;;4966996;29;20043;-85
2021/08/26 03:57:11;;;;;;;8.43;1.10;;;14.70;99.90;;;;;;4950405;28;20048;-85
2021/08/26 03:59:37;;;;;;;9.80;1.05;;;14.60;99.90;;;;;;4948544;29;20043;-86
2021/08/26 04:02:03;;;;;;;9.10;1.02;;;14.60;99.90;;;;;;4931574;29;20032;-86
2021/08/26 04:04:28;;;;;;;10.23;1.13;;;14.60;99.90;;;;;;4947184;29;20036;-86
2021/08/26 04:06:54;;;;;;;8.55;1.00;;;14.60;99.90;;;;;;4947095;29;20027;-86
2021/08/26 04:09:19;;;;;;;11.48;1.52;;;14.70;99.90;;;;;;4931057;29;20032;-86
2021/08/26 04:11:45;;;;;;;6.75;0.88;;;14.60;99.90;;;;;;4947325;29;20128;-85
2021/08/26 04:14:11;;;;;;;6.03;0.85;;;14.60;99.90;;;;;;4947134;29;20031;-86
2021/08/26 04:16:36;;;;;;;9.38;1.50;;;14.60;99.90;;;;;;4946973;29;20040;-87
2021/08/26 04:19:02;;;;;;;8.40;0.98;;;14.70;99.90;;;;;;4947055;29;20038;-87
2021/08/26 04:21:28;;;;;;;7.70;0.70;;;14.70;99.90;;;;;;4947183;29;20036;-86
2021/08/26 04:23:53;;;;;;;8.18;0.95;;;14.70;99.90;;;;;;4947180;29;20032;-85
2021/08/26 04:26:19;;;;;;;11.90;1.55;;;14.70;99.90;;;;;;4947087;29;20039;-86
2021/08/26 04:28:46;;;;;;;13.88;1.08;;;14.70;99.90;;;;;;4947082;29;20036;-87
2021/08/26 04:31:11;;;;;;;8.70;0.85;;;14.60;99.90;;;;;;4931081;29;20441;-87
2021/08/26 04:33:37;;;;;;;13.13;1.80;;;14.70;99.90;;;;;;4947186;29;20064;-88
2021/08/26 04:36:03;;;;;;;7.60;1.20;;;14.70;99.90;;;;;;4930939;29;20067;-86
2021/08/26 04:38:29;;;;;;;10.10;1.98;;;14.70;99.90;;;;;;4930617;29;20051;-87
2021/08/26 04:40:54;;;;;;;7.68;1.10;;;14.60;99.90;;;;;;4946959;29;20043;-87
2021/08/26 04:43:20;;;;;;;9.30;1.20;;;14.60;99.90;;;;;;4946975;29;20035;-86
2021/08/26 04:45:46;;;;;;;8.02;1.20;;;14.60;99.90;;;;;;4946813;29;20123;-87
2021/08/26 04:48:11;;;;;;;7.00;1.45;;;14.60;99.90;;;;;;4947192;29;20031;-86
2021/08/26 04:50:37;;;;;;;12.02;1.20;;;14.70;99.90;;;;;;4950373;29;20035;-85
2021/08/26 04:53:03;;;;;;;5.93;0.80;;;14.70;99.90;;;;;;4950708;29;20380;-86
2021/08/26 04:55:28;;;;;;;10.90;1.40;;;14.70;99.90;;;;;;4950264;29;20048;-86
2021/08/26 04:57:54;;;;;;;11.20;0.95;;;14.70;99.90;;;;;;4950485;29;20028;-86
2021/08/26 05:00:20;;;;;;;11.88;1.50;;;14.70;99.90;;;;;;4950083;29;20432;-86
2021/08/26 05:02:46;;;;;;;7.85;1.60;;;14.70;99.90;;;;;;4949653;29;20502;-86
2021/08/26 05:05:11;;;;;;;11.07;1.33;;;14.70;99.90;;;;;;4950893;29;20074;-85
2021/08/26 05:07:37;;;;;;;11.50;1.85;;;14.70;99.90;;;;;;4949556;29;20090;-86
2021/08/26 05:10:03;;;;;;;10.10;1.20;;;14.70;99.90;;;;;;4949410;29;20042;-86
2021/08/26 05:12:30;;;;;;;10.35;1.27;;;14.70;99.90;;;;;;4949673;29;20063;-86
2021/08/26 05:14:56;;;;;;;10.48;1.30;;;14.70;99.90;;;;;;4949439;29;20050;-85
2021/08/26 05:17:22;;;;;;;12.13;1.10;;;14.70;99.90;;;;;;4949324;29;20074;-86
2021/08/26 05:19:48;;;;;;;6.18;0.85;;;14.70;99.90;;;;;;4949314;29;20032;-86
2021/08/26 05:22:14;;;;;;;6.60;1.20;;;14.70;99.90;;;;;;4949766;29;20051;-88
2021/08/26 05:24:39;;;;;;;12.02;2.00;;;14.70;99.90;;;;;;4933785;29;20031;-86
2021/08/26 05:27:05;;;;;;;10.70;1.10;;;14.70;99.90;;;;;;4933254;29;20039;-86
2021/08/26 05:29:30;;;;;;;9.15;1.10;;;14.70;99.90;;;;;;4949380;29;20077;-85
2021/08/26 05:31:56;;;;;;;9.73;1.10;;;14.70;99.90;;;;;;4949388;29;20169;-86
2021/08/26 05:34:21;;;;;;;9.32;1.42;;;14.70;99.90;;;;;;4966120;29;20035;-88
2021/08/26 05:36:47;;;;;;;12.07;1.55;;;14.70;99.90;;;;;;4952423;29;20039;-87
2021/08/26 05:39:13;;;;;;;12.52;1.10;;;14.70;99.90;;;;;;4952541;29;20035;-86
2021/08/26 05:41:44;;;;;;;10.48;1.00;;;14.80;99.90;;;;;;4952406;29;20042;-86
2021/08/26 05:44:13;;;;;;;7.43;0.93;;;14.80;99.90;;;;;;4952258;29;20035;-86
2021/08/26 05:46:39;;;;;;;7.03;1.05;;;14.80;99.90;;;;;;4967945;29;20042;-86
2021/08/26 05:49:04;;;;;;;7.68;0.90;;;14.80;99.90;;;;;;4952097;29;20039;-87
2021/08/26 05:51:30;;;;;;;9.90;1.00;;;14.90;99.90;;;;;;4952018;29;20038;-87
2021/08/26 05:53:55;;;;;;;8.75;1.63;;;14.80;99.90;;;;;;4952086;29;20023;-86
2021/08/26 05:56:21;;;;;;;10.68;0.90;;;14.90;99.90;;;;;;4951731;29;20111;-86
2021/08/26 05:58:46;;;;;;;9.93;0.90;;;14.90;99.90;;;;;;4951953;29;20035;-87
2021/08/26 06:01:12;;;;;;;8.00;0.65;;;14.90;99.90;;;;;;4967089;28;20034;-86
2021/08/26 06:03:38;;;;;;;10.45;0.90;;;14.90;99.90;;;;;;4951923;29;20043;-86
2021/08/26 06:06:03;;;;;;;7.53;1.10;;;14.90;99.90;;;;;;4951621;29;20472;-86
2021/08/26 06:08:30;;;;;;;9.15;1.25;;;14.90;99.90;;;;;;4967803;29;20391;-85
2021/08/26 06:10:57;;;;;;;8.18;1.17;;;15.00;99.90;;;;;;4951577;29;20031;-84
2021/08/26 06:13:22;;;;;;;6.38;0.95;;;15.00;99.90;;;;;;4951565;29;20035;-85
2021/08/26 06:15:48;;;;;;;7.93;0.80;;;15.00;99.90;;;;;;4951254;29;20043;-85
2021/08/26 06:18:17;;;;;;;8.13;0.90;;;15.00;99.90;;;;;;4932372;29;20035;-85
2021/08/26 06:20:44;;;;;;;9.15;0.95;;;15.10;99.90;;;;;;4929221;29;20070;-86
2021/08/26 06:23:10;;;;;;;8.18;1.00;;;15.00;99.90;;;;;;4929102;29;20247;-84
2021/08/26 06:25:36;;;;;;;6.85;1.13;;;15.10;99.90;;;;;;4929213;29;20514;-85
2021/08/26 06:28:01;;;;;;;10.35;1.17;;;15.10;99.90;;;;;;4928843;29;20040;-84
2021/08/26 06:30:28;;;;;;;8.45;1.05;;;15.10;99.90;;;;;;4929044;29;20060;-85
2021/08/26 06:32:54;;;;;;;9.05;1.10;;;15.10;99.90;;;;;;4934387;29;20043;-87
2021/08/26 06:35:20;;;;;;;12.27;1.45;;;15.20;99.90;;;;;;4947942;29;20039;-85
2021/08/26 06:37:45;;;;;;;9.10;0.70;;;15.20;99.90;;;;;;4947976;29;20547;-86
2021/08/26 06:40:12;;;;;;;8.48;1.13;;;15.20;99.90;;;;;;4947955;29;20036;-84
2021/08/26 06:42:37;;;;;;;9.30;1.00;;;15.30;99.90;;;;;;4947702;29;20100;-87
2021/08/26 06:45:04;;;;;;;7.85;0.70;;;15.30;99.90;;;;;;4949152;29;20051;-86
2021/08/26 06:47:29;;;;;;;9.98;1.17;;;15.20;99.90;;;;;;4972286;23;20122;-86
2021/08/26 06:49:55;;;;;;;7.70;0.70;;;15.30;99.90;;;;;;4970505;28;20031;-85
2021/08/26 06:52:20;;;;;;;5.30;0.65;;;15.40;99.90;;;;;;4986769;28;20103;-85
2021/08/26 06:54:46;;;;;;;4.05;0.60;;;15.30;99.90;;;;;;4970444;28;20138;-84
2021/08/26 06:57:13;;;;;;;8.55;0.73;;;15.20;99.90;;;;;;4970199;28;20050;-85
2021/08/26 06:59:39;;;;;;;9.07;0.52;;;15.00;99.90;;;;;;4986668;28;20054;-85
2021/08/26 07:02:04;;;;;;;7.07;0.57;;;14.90;99.90;;;;;;4970191;28;20042;-85
2021/08/26 07:04:30;;;;;;;5.72;0.50;;;14.80;99.90;;;;;;4986603;28;20038;-86
2021/08/26 07:06:56;;;;;;;6.18;0.93;;;14.80;99.90;;;;;;4987849;28;20066;-87
2021/08/26 07:09:22;;;;;;;7.88;0.80;;;14.80;99.90;;;;;;4986636;28;20085;-88
2021/08/26 07:11:49;;;;;;;9.02;0.70;;;14.70;99.90;;;;;;4986696;28;20066;-91
2021/08/26 07:14:15;;;;;;;9.40;1.13;;;14.60;99.90;;;;;;4987671;28;20062;-93
2021/08/26 07:16:41;;;;;;;8.15;0.60;;;14.50;99.90;;;;;;4986535;28;20030;-90
2021/08/26 07:19:06;;;;;;;5.20;0.60;;;14.50;99.90;;;;;;4970455;28;20148;-93
2021/08/26 07:21:32;;;;;;;6.57;0.60;;;14.50;99.90;;;;;;4970338;28;20034;-92
2021/08/26 07:23:58;;;;;;;4.32;0.40;;;14.60;99.90;;;;;;4970096;28;20031;-92
2021/08/26 07:26:23;;;;;;;5.68;0.40;;;14.70;99.90;;;;;;4970124;28;20038;-93
2021/08/26 07:28:51;;;;;;;5.68;0.70;;;14.80;99.90;;;;;;4986264;28;20089;-92
2021/08/26 07:31:17;;;;;;;7.05;0.50;;;14.90;99.90;;;;;;4970388;28;20059;-92
2021/08/26 07:33:42;;;;;;;9.05;0.65;;;15.00;99.90;;;;;;4969910;28;20042;-90
2021/08/26 07:36:08;;;;;;;6.75;0.60;;;14.90;99.90;;;;;;4985816;28;20042;-91
2021/08/26 07:38:33;;;;;;;8.15;1.23;;;15.00;99.90;;;;;;4969945;28;20035;-90
2021/08/26 07:40:59;;;;;;;7.10;0.80;;;15.10;99.90;;;;;;4969801;28;20047;-90
2021/08/26 07:43:30;;;;;;;5.35;0.60;;;15.00;99.90;;;;;;4969858;28;20122;-89
2021/08/26 07:46:16;;;;;;;2.58;0.40;;;15.10;99.90;;;;;;4985932;28;20034;-88
2021/08/26 07:48:42;;;;;;;7.60;0.60;;;15.30;99.90;;;;;;4913876;29;20056;-89
2021/08/26 07:51:08;;;;;;;4.07;0.50;;;15.30;99.90;;;;;;4946111;29;20051;-90
2021/08/26 07:53:34;;;;;;;4.43;0.40;;;15.20;99.90;;;;;;4930183;29;20048;-90
2021/08/26 07:56:01;;;;;;;6.00;0.45;;;15.20;99.90;;;;;;4930139;29;20063;-91
2021/08/26 07:58:29;;;;;;;6.75;0.70;;;15.50;99.90;;;;;;4930219;29;20036;-90
2021/08/26 08:00:56;;;;;;;5.95;0.50;;;15.50;99.90;;;;;;4930388;29;20084;-91
2021/08/26 08:03:22;;;;;;;7.57;0.90;;;15.70;99.90;;;;;;4930921;29;20531;-92
2021/08/26 08:05:48;;;;;;;6.07;0.80;;;15.80;99.90;;;;;;4946241;29;20039;-91
2021/08/26 08:08:13;;;;;;;4.63;0.50;;;16.00;99.90;;;;;;4930178;29;20060;-91
2021/08/26 08:10:39;;;;;;;4.80;0.50;;;15.90;99.90;;;;;;4930146;29;20107;-89
2021/08/26 08:13:05;;;;;;;4.18;0.55;;;16.00;99.90;;;;;;4914115;29;20073;-90
2021/08/26 08:15:30;;;;;;;5.68;0.60;;;16.00;99.90;;;;;;4929749;29;20051;-89
2021/08/26 08:17:57;;;;;;;7.45;0.55;;;15.90;99.90;;;;;;4943097;29;20035;-91
2021/08/26 08:20:24;;;;;;;5.85;0.40;;;15.60;99.90;;;;;;4933240;29;20067;-91
2021/08/26 08:22:50;;;;;;;5.90;0.43;;;15.50;99.90;;;;;;4949582;29;20031;-91
2021/08/26 08:25:16;;;;;;;6.90;0.70;;;15.60;99.90;;;;;;4958061;29;20076;-90
2021/08/26 08:27:41;;;;;;;6.00;0.80;;;15.60;99.90;;;;;;4956221;29;20094;-91
2021/08/26 08:30:08;;;;;;;3.80;0.40;;;15.50;99.90;;;;;;4956439;29;20035;-90
2021/08/26 08:32:33;;;;;;;4.55;0.60;;;15.50;99.90;;;;;;4959172;28;20077;-91
2021/08/26 08:34:59;;;;;;;4.63;0.68;;;15.60;99.90;;;;;;4991619;28;20101;-89
2021/08/26 08:37:25;;;;;;;10.77;0.60;;;15.80;99.90;;;;;;5007827;28;20043;-91
2021/08/26 08:39:50;;;;;;;4.82;0.50;;;15.90;99.90;;;;;;4991769;28;20030;-89
2021/08/26 08:42:21;;;;;;;4.95;0.60;;;15.90;99.90;;;;;;4991809;28;20039;-88
2021/08/26 08:44:47;;;;;;;4.85;0.40;;;16.20;99.90;;;;;;4991584;28;20045;-89
2021/08/26 08:47:14;;;;;;;4.25;0.50;;;16.70;99.90;;;;;;5007335;28;20138;-91
2021/08/26 08:49:42;;;;;;;7.55;0.90;;;16.70;99.90;;;;;;4991580;28;20450;-91
2021/08/26 08:52:09;;;;;;;7.68;0.50;;;16.70;99.90;;;;;;4975465;28;20582;-90
2021/08/26 08:54:35;;;;;;;4.25;0.55;;;16.90;99.90;;;;;;4992477;28;20098;-92
2021/08/26 08:57:01;;;;;;;5.00;0.50;;;16.60;99.90;;;;;;4991798;28;20038;-91
2021/08/26 08:59:34;;;;;;;7.80;0.55;;;16.80;99.90;;;;;;4975357;28;20030;-90
2021/08/26 09:02:00;;;;;;;5.68;0.60;;;16.40;99.90;;;;;;4991443;28;20070;-90
2021/08/26 09:04:25;;;;;;;5.63;0.70;;;16.10;99.90;;;;;;4975312;28;20031;-88
2021/08/26 09:06:51;;;;;;;5.00;0.60;;;16.00;99.90;;;;;;4991251;28;20122;-89
2021/08/26 09:09:20;;;;;;;3.50;0.70;;;15.90;99.90;;;;;;4975331;28;20065;-90
2021/08/26 09:11:54;;;;;;;5.68;0.85;;;15.80;99.90;;;;;;4991285;28;20042;-90
2021/08/26 09:14:23;;;;;;;4.63;0.60;;;15.90;99.90;;;;;;4990951;28;20040;-89
2021/08/26 09:16:51;;;;;;;7.10;0.85;;;16.00;99.90;;;;;;4974860;28;20034;-89
2021/08/26 09:19:31;;;;;;;3.25;0.60;;;15.90;99.90;;;;;;4959239;28;20129;-90
2021/08/26 09:21:59;;;;;;;4.15;0.68;;;16.00;99.90;;;;;;4975148;28;20035;-89
2021/08/26 09:24:45;;;;;;;8.77;0.70;;;16.20;99.90;;;;;;4975050;28;20106;-90
2021/08/26 09:27:11;;;;;;;5.35;0.50;;;16.40;99.90;;;;;;4958947;28;20106;-90
2021/08/26 09:30:12;;;;;;;4.70;0.50;;;16.60;99.90;;;;;;4958848;28;20031;-90
2021/08/26 09:32:48;;;;;;;5.65;0.95;;;16.50;99.90;;;;;;4974857;28;20030;-90
2021/08/26 09:35:22;;;;;;;4.45;0.70;;;16.60;99.90;;;;;;4956286;28;20046;-87
2021/08/26 09:37:59;;;;;;;6.32;0.60;;;16.70;99.90;;;;;;4956084;28;20154;-89
2021/08/26 09:40:32;;;;;;;6.60;0.80;;;16.80;99.90;;;;;;4956069;28;20035;-91
2021/08/26 09:43:03;;;;;;;6.20;0.65;;;16.80;99.90;;;;;;4972062;28;20026;-89
2021/08/26 09:45:39;;;;;;;4.78;0.70;;;16.90;99.90;;;;;;4971839;28;20031;-90
2021/08/26 09:48:13;;;;;;;4.18;0.75;;;16.90;99.90;;;;;;4960296;23;20358;-86
2021/08/26 09:50:49;;;;;;;3.03;0.50;;;16.90;99.90;;;;;;4968743;29;20035;-88
2021/08/26 09:53:22;;;;;;;2.47;0.50;;;17.20;99.90;;;;;;4968872;29;20051;-86
2021/08/26 09:56:01;;;;;;;6.50;0.70;;;17.60;99.90;;;;;;4952688;29;20043;-87
2021/08/26 09:58:32;;;;;;;4.60;0.55;;;17.60;99.90;;;;;;4969696;28;20043;-87
2021/08/26 10:01:08;;;;;;;3.90;0.50;;;17.90;99.90;;;;;;4952570;28;20054;-88
2021/08/26 10:03:34;;;;;;;5.30;0.50;;;17.70;99.90;;;;;;4968345;29;20042;-86
2021/08/26 10:06:03;;;;;;;4.25;0.60;;;17.90;99.90;;;;;;4952375;29;20031;-86
2021/08/26 10:08:31;;;;;;;6.80;0.50;;;17.60;99.90;;;;;;4952372;29;20031;-87
2021/08/26 10:10:59;;;;;;;6.88;0.85;;;17.40;99.90;;;;;;4952253;28;20766;-88
2021/08/26 10:13:25;;;;;;;5.88;0.60;;;17.10;99.90;;;;;;4952462;29;20038;-88
2021/08/26 10:15:51;;;;;;;5.90;0.65;;;17.10;99.90;;;;;;4968035;29;20050;-87
2021/08/26 10:18:17;;;;;;;4.63;0.60;;;17.00;99.90;;;;;;4967627;29;20031;-87
2021/08/26 10:20:44;;;;;;;6.57;0.80;;;16.90;99.90;;;;;;4967848;29;20035;-86
2021/08/26 10:23:10;;;;;;;3.97;1.08;;;17.00;99.90;;;;;;4967831;28;20031;-87
2021/08/26 10:25:40;;;;;;;3.72;0.50;;;17.00;99.90;;;;;;4951449;29;20023;-87
2021/08/26 10:28:08;;;;;;;7.53;0.82;;;16.90;99.90;;;;;;4967646;29;20039;-88
2021/08/26 10:30:36;;;;;;;5.38;0.90;;;16.90;99.90;;;;;;4951754;29;20178;-85
2021/08/26 10:33:04;;;;;;;5.65;0.60;;;16.70;99.90;;;;;;4967468;28;20099;-87
2021/08/26 10:35:29;;;;;;;3.00;0.50;;;16.70;99.90;;;;;;4951401;29;20050;-86
2021/08/26 10:37:55;;;;;;;7.43;1.02;;;16.70;99.90;;;;;;4951561;29;20035;-86
2021/08/26 10:40:37;;;;;;;5.82;0.98;;;16.60;99.90;;;;;;4967475;28;20054;-87
2021/08/26 10:43:03;;;;;;;4.97;0.60;;;16.80;99.90;;;;;;4935736;29;20035;-87
2021/08/26 10:49:00;;;;;;;4.60;0.88;;;16.90;99.90;;;;;;4911426;29;20412;-87
2021/08/26 10:51:41;;;;;;;7.50;0.77;;;17.30;99.90;;;;;;4911989;29;20146;-87
2021/08/26 10:54:25;;;;;;;7.90;0.90;;;17.30;99.90;;;;;;4896355;29;20040;-88
2021/08/26 10:56:51;;;;;;;5.72;0.80;;;17.20;99.90;;;;;;4896266;29;20060;-87
2021/08/26 10:59:31;;;;;;;4.15;0.95;;;18.00;99.90;;;;;;4912217;29;20103;-88
2021/08/26 11:01:57;;;;;;;;;;;18.10;99.90;;;;;;4896989;29;20135;-89
2021/08/26 11:04:30;;;;;;;6.75;0.80;;;18.50;99.90;;;;;;4896079;29;19911;-87
2021/08/26 11:06:57;;;;;;;6.22;0.90;;;18.70;99.90;;;;;;4896248;29;20044;-87
2021/08/26 11:09:27;;;;;;;7.88;0.85;;;18.40;99.90;;;;;;4896402;29;20092;-87
2021/08/26 11:11:59;;;;;;;4.00;0.70;;;18.40;99.90;;;;;;4911900;29;20111;-88
2021/08/26 11:14:28;;;;;;;11.55;0.88;;;18.50;99.90;;;;;;4895925;29;20071;-87
2021/08/26 11:17:02;;;;;;;6.22;1.15;;;19.00;99.90;;;;;;4895527;29;20036;-86
2021/08/26 11:19:38;;;;;;;8.77;0.95;;;19.50;99.90;;;;;;4911568;29;20040;-86
2021/08/26 11:22:09;;;;;;;6.13;0.60;;;19.10;99.90;;;;;;4911984;29;20040;-86
2021/08/26 11:24:36;;;;;;;6.72;1.45;;;18.90;99.90;;;;;;4912816;29;20028;-86
2021/08/26 11:27:13;;;;;;;9.85;0.80;;;19.00;99.90;;;;;;4963690;29;20043;-88
2021/08/26 11:29:39;;;;;;;4.30;0.70;;;19.40;99.90;;;;;;4966757;29;20047;-85
2021/08/26 11:32:07;;;;;;;5.07;0.80;;;19.20;99.90;;;;;;4967559;29;20369;-85
2021/08/26 11:34:49;;;;;;;8.38;1.00;;;19.20;99.90;;;;;;4965468;28;20073;-87
2021/08/26 11:37:23;;;;;;;7.78;0.65;;;19.40;99.90;;;;;;4967619;28;20058;-87
2021/08/26 11:40:00;;;;;;;7.13;1.10;;;19.10;99.90;;;;;;4950389;28;20031;-87
2021/08/26 11:42:47;;;;;;;7.53;0.77;;;19.60;99.90;;;;;;4950281;29;20031;-87
2021/08/26 11:45:23;;;;;;;3.47;0.68;;;19.50;99.90;;;;;;4966079;28;20121;-87
2021/08/26 11:47:54;;;;;;;7.40;0.98;;;19.50;99.90;;;;;;4965927;28;20062;-87
2021/08/26 11:50:32;;;;;;;8.35;0.70;;;19.30;99.90;;;;;;4966207;28;20561;-87
2021/08/26 11:53:03;;;;;;;5.57;0.77;;;19.10;99.90;;;;;;4967637;28;20107;-86
2021/08/26 11:55:35;;;;;;;8.25;0.65;;;19.40;99.90;;;;;;4950029;29;20078;-87
2021/08/26 11:58:07;;;;;;;6.40;0.60;;;19.10;99.90;;;;;;4949578;29;20035;-87
2021/08/26 12:00:33;;;;;;;6.53;0.70;;;19.00;99.90;;;;;;4950330;29;20035;-86
2021/08/26 12:03:01;;;;;;;8.45;1.05;;;18.90;99.90;;;;;;4966223;29;20525;-85
2021/08/26 12:05:27;;;;;;;10.57;0.88;;;19.20;99.90;;;;;;4949829;29;20039;-87
2021/08/26 12:07:55;;;;;;;9.00;0.90;;;19.00;99.90;;;;;;4966134;28;20031;-88
2021/08/26 12:10:26;;;;;;;4.97;0.82;;;19.00;99.90;;;;;;4967316;28;20063;-88
2021/08/26 12:13:07;;;;;;;7.13;0.90;;;19.40;99.90;;;;;;4950181;29;20126;-86
2021/08/26 12:15:41;;;;;;;11.80;1.08;;;19.50;99.90;;;;;;4965912;29;20435;-88
2021/08/26 12:18:11;;;;;;;11.90;1.15;;;19.60;99.90;;;;;;4946448;29;20094;-88
2021/08/26 12:21:03;;;;;;;7.43;1.00;;;19.60;99.90;;;;;;4946606;29;20040;-86
2021/08/26 12:23:31;;;;;;;8.88;1.48;;;19.70;99.90;;;;;;4962764;29;20472;-85
2021/08/26 12:26:19;;;;;;;8.60;1.35;;;19.80;99.90;;;;;;4946392;29;20084;-86
2021/08/26 12:29:01;;;;;;;9.70;1.33;;;20.10;99.90;;;;;;4930664;29;20051;-88
2021/08/26 12:31:28;;;;;;;7.60;1.42;;;19.80;99.90;;;;;;4946544;29;20492;-87
2021/08/26 12:34:06;;;;;;;8.35;1.60;;;20.00;99.90;;;;;;4960971;29;20155;-87
2021/08/26 12:36:35;;;;;;;6.43;0.75;;;19.90;99.90;;;;;;4949362;29;20039;-87
2021/08/26 12:39:01;;;;;;;7.68;1.10;;;19.70;99.90;;;;;;4949677;29;20086;-87
2021/08/26 12:41:27;;;;;;;5.65;0.93;;;19.70;99.90;;;;;;4949422;29;20055;-87
2021/08/26 12:43:57;;;;;;;8.88;1.40;;;19.90;99.90;;;;;;4965771;28;20031;-87
2021/08/26 12:46:44;;;;;;;6.68;1.27;;;19.80;99.90;;;;;;4949381;29;20039;-86
2021/08/26 12:49:11;;;;;;;11.57;1.73;;;19.90;99.90;;;;;;4948199;29;20059;-87
2021/08/26 12:51:55;;;;;;;10.23;1.45;;;20.30;99.90;;;;;;4932223;29;20047;-87
2021/08/26 12:54:21;;;;;;;6.65;1.67;;;19.90;99.90;;;;;;4932539;29;20043;-86
2021/08/26 12:56:49;;;;;;;8.50;1.55;;;20.10;99.90;;;;;;4932208;29;20432;-86
2021/08/26 12:59:16;;;;;;;6.95;1.83;;;20.30;99.90;;;;;;4932247;29;20035;-87
2021/08/26 13:01:50;;;;;;;11.65;1.83;;;20.30;99.90;;;;;;4932549;29;20094;-87
2021/08/26 13:04:22;;;;;;;4.88;0.88;;;20.70;99.90;;;;;;4964358;29;20091;-85